sensor_id;sensor_type;location;lat;lon;timestamp;pressure;altitude;pressure_sealevel;temperature;humidity
43824;BME280;29470;53.550;9.926;2022-07-18T00:01:36;102133.50;;;16.48;79.16
43824;BME280;29470;53.550;9.926;2022-07-18T00:06:40;102133.50;;;16.48;79.11
43824;BME280;29470;53.550;9.926;2022-07-18T00:11:44;102119.50;;;16.48;79.54
43824;BME280;29470;53.550;9.926;2022-07-18T00:16:48;102111.41;;;16.57;80.20
43824;BME280;29470;53.550;9.926;2022-07-18T00:21:51;102113.81;;;16.54;80.01
43824;BME280;29470;53.550;9.926;2022-07-18T00:26:55;102110.88;;;16.49;80.45
43824;BME280;29470;53.550;9.926;2022-07-18T00:31:58;102117.50;;;16.44;81.47
43824;BME280;29470;53.550;9.926;2022-07-18T00:37:01;102118.81;;;16.37;82.64
43824;BME280;29470;53.550;9.926;2022-07-18T00:42:05;102109.16;;;16.36;82.88
43824;BME280;29470;53.550;9.926;2022-07-18T00:47:08;102123.41;;;16.28;83.88
43824;BME280;29470;53.550;9.926;2022-07-18T00:52:12;102113.63;;;16.25;84.93
43824;BME280;29470;53.550;9.926;2022-07-18T00:57:16;102098.72;;;16.36;84.39
43824;BME280;29470;53.550;9.926;2022-07-18T01:02:19;102106.22;;;16.31;85.12
43824;BME280;29470;53.550;9.926;2022-07-18T01:07:23;102107.59;;;16.13;86.07
43824;BME280;29470;53.550;9.926;2022-07-18T01:12:27;102114.78;;;16.03;86.79
43824;BME280;29470;53.550;9.926;2022-07-18T01:17:30;102118.19;;;16.02;87.27
43824;BME280;29470;53.550;9.926;2022-07-18T01:22:37;102108.53;;;16.01;87.68
43824;BME280;29470;53.550;9.926;2022-07-18T01:27:43;102106.84;;;16.02;88.23
43824;BME280;29470;53.550;9.926;2022-07-18T01:32:45;102103.75;;;16.08;88.57
43824;BME280;29470;53.550;9.926;2022-07-18T01:37:51;102106.84;;;16.02;88.49
43824;BME280;29470;53.550;9.926;2022-07-18T01:42:54;102099.03;;;16.02;88.51
43824;BME280;29470;53.550;9.926;2022-07-18T01:47:56;102096.41;;;16.02;88.44
43824;BME280;29470;53.550;9.926;2022-07-18T01:53:01;102090.50;;;16.04;88.80
43824;BME280;29470;53.550;9.926;2022-07-18T01:58:04;102095.13;;;16.09;87.96
43824;BME280;29470;53.550;9.926;2022-07-18T02:03:06;102096.63;;;16.05;88.55
43824;BME280;29470;53.550;9.926;2022-07-18T02:08:11;102096.50;;;16.03;88.68
43824;BME280;29470;53.550;9.926;2022-07-18T02:13:14;102078.38;;;16.05;88.54
43824;BME280;29470;53.550;9.926;2022-07-18T02:18:18;102090.81;;;16.09;88.62
43824;BME280;29470;53.550;9.926;2022-07-18T02:23:22;102082.03;;;15.95;87.69
43824;BME280;29470;53.550;9.926;2022-07-18T02:28:25;102077.53;;;15.93;87.87
43824;BME280;29470;53.550;9.926;2022-07-18T02:33:28;102073.81;;;15.89;87.79
43824;BME280;29470;53.550;9.926;2022-07-18T02:38:32;102070.41;;;15.90;87.51
43824;BME280;29470;53.550;9.926;2022-07-18T02:43:35;102071.53;;;15.82;87.38
43824;BME280;29470;53.550;9.926;2022-07-18T02:48:40;102074.41;;;15.73;87.50
43824;BME280;29470;53.550;9.926;2022-07-18T02:53:44;102076.78;;;15.70;87.33
43824;BME280;29470;53.550;9.926;2022-07-18T02:58:47;102081.72;;;15.65;87.16
43824;BME280;29470;53.550;9.926;2022-07-18T03:03:50;102075.91;;;15.69;87.06
43824;BME280;29470;53.550;9.926;2022-07-18T03:08:55;102073.38;;;15.71;86.82
43824;BME280;29470;53.550;9.926;2022-07-18T03:13:57;102074.09;;;15.68;87.15
43824;BME280;29470;53.550;9.926;2022-07-18T03:19:00;102071.28;;;15.65;86.92
43824;BME280;29470;53.550;9.926;2022-07-18T03:24:05;102064.31;;;15.78;86.92
43824;BME280;29470;53.550;9.926;2022-07-18T03:29:08;102061.66;;;15.89;87.01
43824;BME280;29470;53.550;9.926;2022-07-18T03:34:11;102056.84;;;15.96;86.77
43824;BME280;29470;53.550;9.926;2022-07-18T03:39:15;102043.94;;;16.11;86.16
43824;BME280;29470;53.550;9.926;2022-07-18T03:44:18;102037.81;;;16.10;86.04
43824;BME280;29470;53.550;9.926;2022-07-18T03:49:21;102045.88;;;16.13;86.74
43824;BME280;29470;53.550;9.926;2022-07-18T03:54:25;102049.16;;;16.11;86.93
43824;BME280;29470;53.550;9.926;2022-07-18T03:59:28;102058.41;;;16.19;86.96
43824;BME280;29470;53.550;9.926;2022-07-18T04:04:31;102055.19;;;16.23;87.59
43824;BME280;29470;53.550;9.926;2022-07-18T04:09:35;102058.63;;;16.35;88.55
43824;BME280;29470;53.550;9.926;2022-07-18T04:14:37;102048.63;;;16.55;88.15
43824;BME280;29470;53.550;9.926;2022-07-18T04:19:40;102050.00;;;16.77;87.50
43824;BME280;29470;53.550;9.926;2022-07-18T04:24:44;102043.91;;;16.76;87.00
43824;BME280;29470;53.550;9.926;2022-07-18T04:29:54;102039.38;;;16.74;86.71
43824;BME280;29470;53.550;9.926;2022-07-18T04:34:56;102046.13;;;16.70;86.36
43824;BME280;29470;53.550;9.926;2022-07-18T04:40:01;102039.47;;;16.75;86.14
43824;BME280;29470;53.550;9.926;2022-07-18T04:45:05;102028.31;;;16.78;85.66
43824;BME280;29470;53.550;9.926;2022-07-18T04:50:09;102034.13;;;16.87;85.53
43824;BME280;29470;53.550;9.926;2022-07-18T04:55:15;102033.53;;;17.05;84.91
43824;BME280;29470;53.550;9.926;2022-07-18T05:00:19;102026.25;;;17.28;83.10
43824;BME280;29470;53.550;9.926;2022-07-18T05:05:23;102023.03;;;17.47;82.14
43824;BME280;29470;53.550;9.926;2022-07-18T05:10:33;102017.94;;;17.78;80.86
43824;BME280;29470;53.550;9.926;2022-07-18T05:15:37;102031.69;;;17.89;78.87
43824;BME280;29470;53.550;9.926;2022-07-18T05:20:40;102028.56;;;18.25;78.30
43824;BME280;29470;53.550;9.926;2022-07-18T05:25:46;102031.44;;;18.45;76.73
43824;BME280;29470;53.550;9.926;2022-07-18T05:30:49;102025.84;;;18.53;75.41
43824;BME280;29470;53.550;9.926;2022-07-18T05:35:52;102024.84;;;18.36;75.70
43824;BME280;29470;53.550;9.926;2022-07-18T05:40:56;102026.72;;;18.54;75.11
43824;BME280;29470;53.550;9.926;2022-07-18T05:45:59;102019.94;;;18.58;75.07
43824;BME280;29470;53.550;9.926;2022-07-18T05:51:03;102044.50;;;18.75;73.37
43824;BME280;29470;53.550;9.926;2022-07-18T05:56:08;102045.53;;;19.25;71.65
43824;BME280;29470;53.550;9.926;2022-07-18T06:01:11;102049.22;;;19.45;69.59
43824;BME280;29470;53.550;9.926;2022-07-18T06:06:18;102045.84;;;19.81;67.79
43824;BME280;29470;53.550;9.926;2022-07-18T06:11:22;102038.56;;;19.92;67.02
43824;BME280;29470;53.550;9.926;2022-07-18T06:16:25;102034.88;;;20.77;62.75
43824;BME280;29470;53.550;9.926;2022-07-18T06:21:28;102031.31;;;21.32;60.63
43824;BME280;29470;53.550;9.926;2022-07-18T06:26:33;102029.19;;;21.43;59.61
43824;BME280;29470;53.550;9.926;2022-07-18T06:31:35;102033.66;;;21.26;59.20
43824;BME280;29470;53.550;9.926;2022-07-18T06:36:38;102023.44;;;21.52;59.50
43824;BME280;29470;53.550;9.926;2022-07-18T06:41:43;102021.81;;;22.37;55.26
43824;BME280;29470;53.550;9.926;2022-07-18T06:46:47;102015.19;;;23.16;53.12
43824;BME280;29470;53.550;9.926;2022-07-18T06:51:50;102019.06;;;23.73;50.34
43824;BME280;29470;53.550;9.926;2022-07-18T06:56:54;102011.09;;;24.50;48.71
43824;BME280;29470;53.550;9.926;2022-07-18T07:01:58;102022.38;;;24.17;49.43
43824;BME280;29470;53.550;9.926;2022-07-18T07:07:01;102017.06;;;23.41;50.31
43824;BME280;29470;53.550;9.926;2022-07-18T07:12:05;101997.56;;;25.28;46.02
43824;BME280;29470;53.550;9.926;2022-07-18T07:17:08;101998.63;;;25.35;44.95
43824;BME280;29470;53.550;9.926;2022-07-18T07:22:12;101990.03;;;24.82;45.49
43824;BME280;29470;53.550;9.926;2022-07-18T07:27:16;101996.34;;;24.86;45.43
43824;BME280;29470;53.550;9.926;2022-07-18T07:32:19;102004.84;;;25.67;44.01
43824;BME280;29470;53.550;9.926;2022-07-18T07:37:23;102001.25;;;25.65;43.15
43824;BME280;29470;53.550;9.926;2022-07-18T07:42:27;102002.22;;;26.02;44.50
43824;BME280;29470;53.550;9.926;2022-07-18T07:47:30;101993.19;;;28.60;37.50
43824;BME280;29470;53.550;9.926;2022-07-18T07:52:34;101988.94;;;30.52;34.83
43824;BME280;29470;53.550;9.926;2022-07-18T07:57:38;101983.84;;;30.97;34.83
43824;BME280;29470;53.550;9.926;2022-07-18T08:02:52;101988.13;;;27.66;38.13
43824;BME280;29470;53.550;9.926;2022-07-18T08:08:01;101976.56;;;27.66;40.17
43824;BME280;29470;53.550;9.926;2022-07-18T08:13:05;101976.59;;;29.53;37.16
43824;BME280;29470;53.550;9.926;2022-07-18T08:18:08;101970.66;;;31.45;33.11
43824;BME280;29470;53.550;9.926;2022-07-18T08:23:12;101972.47;;;31.66;32.05
43824;BME280;29470;53.550;9.926;2022-07-18T08:28:17;101959.69;;;30.67;33.22
43824;BME280;29470;53.550;9.926;2022-07-18T08:33:20;101960.63;;;28.76;36.58
43824;BME280;29470;53.550;9.926;2022-07-18T08:38:24;101937.53;;;27.61;38.59
43824;BME280;29470;53.550;9.926;2022-07-18T08:43:28;101932.78;;;26.97;40.34
43824;BME280;29470;53.550;9.926;2022-07-18T08:48:32;101931.50;;;27.23;39.31
43824;BME280;29470;53.550;9.926;2022-07-18T08:53:35;101926.97;;;28.17;38.45
43824;BME280;29470;53.550;9.926;2022-07-18T08:58:40;101920.59;;;28.08;36.84
43824;BME280;29470;53.550;9.926;2022-07-18T09:03:46;101930.06;;;26.94;39.57
43824;BME280;29470;53.550;9.926;2022-07-18T09:09:11;101929.16;;;26.94;40.65
43824;BME280;29470;53.550;9.926;2022-07-18T09:14:32;101925.56;;;27.36;39.19
43824;BME280;29470;53.550;9.926;2022-07-18T09:19:37;101926.34;;;27.81;38.18
43824;BME280;29470;53.550;9.926;2022-07-18T09:24:52;101937.88;;;27.82;38.51
43824;BME280;29470;53.550;9.926;2022-07-18T09:30:19;101951.38;;;27.45;39.62
43824;BME280;29470;53.550;9.926;2022-07-18T09:35:25;101959.72;;;27.17;40.10
43824;BME280;29470;53.550;9.926;2022-07-18T09:40:29;101951.63;;;27.57;39.25
43824;BME280;29470;53.550;9.926;2022-07-18T09:45:35;101953.50;;;26.74;41.28
43824;BME280;29470;53.550;9.926;2022-07-18T09:50:41;101957.00;;;27.59;40.47
43824;BME280;29470;53.550;9.926;2022-07-18T09:55:47;101952.38;;;28.01;39.46
43824;BME280;29470;53.550;9.926;2022-07-18T10:00:52;101960.28;;;28.55;38.43
43824;BME280;29470;53.550;9.926;2022-07-18T10:05:57;101954.16;;;28.02;39.01
43824;BME280;29470;53.550;9.926;2022-07-18T10:11:01;101946.31;;;28.11;37.83
43824;BME280;29470;53.550;9.926;2022-07-18T10:16:06;101940.25;;;27.64;39.20
43824;BME280;29470;53.550;9.926;2022-07-18T10:21:11;101934.56;;;27.97;39.14
43824;BME280;29470;53.550;9.926;2022-07-18T10:26:17;101926.59;;;27.95;37.63
43824;BME280;29470;53.550;9.926;2022-07-18T10:31:23;101896.84;;;27.66;38.31
43824;BME280;29470;53.550;9.926;2022-07-18T10:36:26;101913.59;;;27.60;38.61
43824;BME280;29470;53.550;9.926;2022-07-18T10:41:29;101896.97;;;28.29;36.99
43824;BME280;29470;53.550;9.926;2022-07-18T10:47:07;101905.47;;;28.69;36.99
43824;BME280;29470;53.550;9.926;2022-07-18T10:52:55;101900.16;;;29.49;35.50
43824;BME280;29470;53.550;9.926;2022-07-18T10:58:17;101913.13;;;29.14;35.64
43824;BME280;29470;53.550;9.926;2022-07-18T11:03:28;101898.66;;;28.91;36.16
43824;BME280;29470;53.550;9.926;2022-07-18T11:08:31;101887.66;;;29.44;35.81
43824;BME280;29470;53.550;9.926;2022-07-18T11:13:36;101886.53;;;30.34;32.84
43824;BME280;29470;53.550;9.926;2022-07-18T11:19:18;101881.97;;;30.11;31.42
43824;BME280;29470;53.550;9.926;2022-07-18T11:24:22;101873.66;;;29.65;32.31
43824;BME280;29470;53.550;9.926;2022-07-18T11:29:25;101862.94;;;29.60;32.80
43824;BME280;29470;53.550;9.926;2022-07-18T11:34:29;101845.22;;;29.64;34.10
43824;BME280;29470;53.550;9.926;2022-07-18T11:39:48;101853.03;;;29.42;33.58
43824;BME280;29470;53.550;9.926;2022-07-18T11:44:57;101850.81;;;30.04;33.43
43824;BME280;29470;53.550;9.926;2022-07-18T11:50:01;101848.19;;;30.10;32.90
43824;BME280;29470;53.550;9.926;2022-07-18T11:55:06;101838.28;;;29.92;32.86
43824;BME280;29470;53.550;9.926;2022-07-18T12:00:17;101828.75;;;30.35;32.91
43824;BME280;29470;53.550;9.926;2022-07-18T12:05:31;101827.72;;;30.08;33.31
43824;BME280;29470;53.550;9.926;2022-07-18T12:10:34;101815.91;;;29.68;33.48
43824;BME280;29470;53.550;9.926;2022-07-18T12:15:40;101818.84;;;30.13;33.36
43824;BME280;29470;53.550;9.926;2022-07-18T12:20:45;101803.38;;;29.53;35.07
43824;BME280;29470;53.550;9.926;2022-07-18T12:25:49;101801.63;;;29.60;33.81
43824;BME280;29470;53.550;9.926;2022-07-18T12:30:53;101802.59;;;29.67;34.20
43824;BME280;29470;53.550;9.926;2022-07-18T12:36:03;101804.47;;;29.83;33.55
43824;BME280;29470;53.550;9.926;2022-07-18T12:41:06;101801.75;;;29.77;34.29
43824;BME280;29470;53.550;9.926;2022-07-18T12:46:09;101798.91;;;29.49;34.12
43824;BME280;29470;53.550;9.926;2022-07-18T12:51:14;101798.03;;;29.52;35.40
43824;BME280;29470;53.550;9.926;2022-07-18T12:56:17;101800.72;;;29.53;34.00
43824;BME280;29470;53.550;9.926;2022-07-18T13:01:20;101794.22;;;29.23;34.39
43824;BME280;29470;53.550;9.926;2022-07-18T13:06:24;101790.84;;;29.42;34.77
43824;BME280;29470;53.550;9.926;2022-07-18T13:11:28;101776.69;;;29.52;34.64
43824;BME280;29470;53.550;9.926;2022-07-18T13:16:32;101779.56;;;29.81;33.57
43824;BME280;29470;53.550;9.926;2022-07-18T13:21:36;101779.88;;;30.48;32.73
43824;BME280;29470;53.550;9.926;2022-07-18T13:26:39;101757.69;;;30.66;32.87
43824;BME280;29470;53.550;9.926;2022-07-18T13:31:42;101762.97;;;30.46;33.59
43824;BME280;29470;53.550;9.926;2022-07-18T13:36:48;101756.78;;;30.61;33.56
43824;BME280;29470;53.550;9.926;2022-07-18T13:41:53;101747.00;;;30.76;33.43
43824;BME280;29470;53.550;9.926;2022-07-18T13:46:56;101747.91;;;30.99;32.79
43824;BME280;29470;53.550;9.926;2022-07-18T13:52:01;101734.56;;;30.99;32.85
43824;BME280;29470;53.550;9.926;2022-07-18T13:57:10;101740.69;;;30.32;33.26
43824;BME280;29470;53.550;9.926;2022-07-18T14:02:13;101734.56;;;30.75;32.54
43824;BME280;29470;53.550;9.926;2022-07-18T14:07:18;101745.94;;;30.18;33.36
43824;BME280;29470;53.550;9.926;2022-07-18T14:12:21;101741.44;;;30.00;33.23
43824;BME280;29470;53.550;9.926;2022-07-18T14:17:24;101742.28;;;29.92;33.01
43824;BME280;29470;53.550;9.926;2022-07-18T14:22:28;101739.63;;;29.94;32.97
43824;BME280;29470;53.550;9.926;2022-07-18T14:27:31;101738.63;;;29.75;33.76
43824;BME280;29470;53.550;9.926;2022-07-18T14:32:34;101737.63;;;29.52;34.68
43824;BME280;29470;53.550;9.926;2022-07-18T14:37:39;101722.94;;;28.91;34.64
43824;BME280;29470;53.550;9.926;2022-07-18T14:42:41;101715.03;;;28.99;34.35
43824;BME280;29470;53.550;9.926;2022-07-18T14:47:45;101718.97;;;29.52;34.37
43824;BME280;29470;53.550;9.926;2022-07-18T14:52:49;101715.53;;;29.75;33.65
43824;BME280;29470;53.550;9.926;2022-07-18T14:57:52;101714.84;;;30.18;33.42
43824;BME280;29470;53.550;9.926;2022-07-18T15:02:57;101707.50;;;29.66;33.76
43824;BME280;29470;53.550;9.926;2022-07-18T15:08:01;101711.25;;;30.04;33.88
43824;BME280;29470;53.550;9.926;2022-07-18T15:13:04;101704.13;;;30.07;33.33
43824;BME280;29470;53.550;9.926;2022-07-18T15:18:07;101709.31;;;29.70;33.92
43824;BME280;29470;53.550;9.926;2022-07-18T15:23:11;101704.69;;;29.41;34.42
43824;BME280;29470;53.550;9.926;2022-07-18T15:28:14;101707.97;;;29.04;35.08
43824;BME280;29470;53.550;9.926;2022-07-18T15:33:17;101695.56;;;29.11;35.19
43824;BME280;29470;53.550;9.926;2022-07-18T15:38:21;101693.31;;;28.57;36.10
43824;BME280;29470;53.550;9.926;2022-07-18T15:43:25;101691.53;;;28.55;35.07
43824;BME280;29470;53.550;9.926;2022-07-18T15:48:28;101693.84;;;28.19;34.77
43824;BME280;29470;53.550;9.926;2022-07-18T15:53:33;101688.50;;;28.17;35.39
43824;BME280;29470;53.550;9.926;2022-07-18T15:58:36;101669.84;;;28.13;34.56
43824;BME280;29470;53.550;9.926;2022-07-18T16:03:39;101662.00;;;28.27;34.51
43824;BME280;29470;53.550;9.926;2022-07-18T16:08:43;101660.06;;;28.13;35.07
43824;BME280;29470;53.550;9.926;2022-07-18T16:13:46;101659.22;;;28.17;35.02
43824;BME280;29470;53.550;9.926;2022-07-18T16:18:50;101652.88;;;28.06;35.33
43824;BME280;29470;53.550;9.926;2022-07-18T16:23:54;101647.38;;;27.89;35.36
43824;BME280;29470;53.550;9.926;2022-07-18T16:28:57;101647.34;;;27.86;35.76
43824;BME280;29470;53.550;9.926;2022-07-18T16:34:00;101643.00;;;27.94;35.49
43824;BME280;29470;53.550;9.926;2022-07-18T16:39:04;101642.16;;;27.98;35.66
43824;BME280;29470;53.550;9.926;2022-07-18T16:44:08;101640.47;;;28.06;34.75
43824;BME280;29470;53.550;9.926;2022-07-18T16:49:11;101638.59;;;27.98;35.53
43824;BME280;29470;53.550;9.926;2022-07-18T16:54:16;101645.81;;;28.08;35.35
43824;BME280;29470;53.550;9.926;2022-07-18T16:59:19;101633.38;;;28.07;35.33
43824;BME280;29470;53.550;9.926;2022-07-18T17:04:23;101628.03;;;28.02;36.61
43824;BME280;29470;53.550;9.926;2022-07-18T17:09:27;101625.97;;;27.78;36.45
43824;BME280;29470;53.550;9.926;2022-07-18T17:14:31;101622.25;;;27.62;35.82
43824;BME280;29470;53.550;9.926;2022-07-18T17:19:34;101625.78;;;27.61;35.91
43824;BME280;29470;53.550;9.926;2022-07-18T17:24:40;101626.56;;;27.55;36.91
43824;BME280;29470;53.550;9.926;2022-07-18T17:29:45;101621.13;;;27.47;37.10
43824;BME280;29470;53.550;9.926;2022-07-18T17:34:56;101630.09;;;27.53;36.65
43824;BME280;29470;53.550;9.926;2022-07-18T17:40:01;101621.06;;;27.41;36.98
43824;BME280;29470;53.550;9.926;2022-07-18T17:45:05;101618.13;;;27.21;37.74
43824;BME280;29470;53.550;9.926;2022-07-18T17:50:10;101615.34;;;27.13;37.91
43824;BME280;29470;53.550;9.926;2022-07-18T17:55:16;101605.34;;;26.94;37.92
43824;BME280;29470;53.550;9.926;2022-07-18T18:00:19;101607.75;;;26.80;38.40
43824;BME280;29470;53.550;9.926;2022-07-18T18:05:22;101608.63;;;26.79;37.97
43824;BME280;29470;53.550;9.926;2022-07-18T18:10:26;101601.28;;;26.62;39.10
43824;BME280;29470;53.550;9.926;2022-07-18T18:15:30;101608.09;;;26.46;39.15
43824;BME280;29470;53.550;9.926;2022-07-18T18:20:33;101600.03;;;26.40;38.96
43824;BME280;29470;53.550;9.926;2022-07-18T18:25:37;101594.63;;;26.35;39.51
43824;BME280;29470;53.550;9.926;2022-07-18T18:30:41;101596.34;;;26.31;39.11
43824;BME280;29470;53.550;9.926;2022-07-18T18:35:44;101582.09;;;26.25;39.54
43824;BME280;29470;53.550;9.926;2022-07-18T18:40:55;101586.25;;;26.12;40.83
43824;BME280;29470;53.550;9.926;2022-07-18T18:45:58;101590.28;;;25.93;40.97
43824;BME280;29470;53.550;9.926;2022-07-18T18:51:01;101594.50;;;25.81;41.17
43824;BME280;29470;53.550;9.926;2022-07-18T18:56:06;101594.16;;;25.64;41.71
43824;BME280;29470;53.550;9.926;2022-07-18T19:01:09;101596.47;;;25.47;42.67
43824;BME280;29470;53.550;9.926;2022-07-18T19:06:12;101595.06;;;25.25;43.76
43824;BME280;29470;53.550;9.926;2022-07-18T19:11:17;101583.00;;;24.98;45.44
43824;BME280;29470;53.550;9.926;2022-07-18T19:16:20;101587.13;;;24.85;46.62
43824;BME280;29470;53.550;9.926;2022-07-18T19:21:23;101586.41;;;24.57;47.54
43824;BME280;29470;53.550;9.926;2022-07-18T19:26:35;101591.84;;;24.28;48.67
43824;BME280;29470;53.550;9.926;2022-07-18T19:31:38;101582.41;;;24.04;49.93
43824;BME280;29470;53.550;9.926;2022-07-18T19:36:43;101591.47;;;23.82;50.72
43824;BME280;29470;53.550;9.926;2022-07-18T19:41:48;101598.72;;;23.59;51.66
43824;BME280;29470;53.550;9.926;2022-07-18T19:46:51;101598.13;;;23.38;52.02
43824;BME280;29470;53.550;9.926;2022-07-18T19:51:54;101598.56;;;23.23;53.38
43824;BME280;29470;53.550;9.926;2022-07-18T19:56:58;101613.91;;;23.09;53.52
43824;BME280;29470;53.550;9.926;2022-07-18T20:02:01;101611.81;;;22.98;54.30
43824;BME280;29470;53.550;9.926;2022-07-18T20:07:05;101608.72;;;22.84;54.28
43824;BME280;29470;53.550;9.926;2022-07-18T20:12:12;101609.09;;;22.69;55.55
43824;BME280;29470;53.550;9.926;2022-07-18T20:17:15;101610.44;;;22.56;56.13
43824;BME280;29470;53.550;9.926;2022-07-18T20:22:18;101614.47;;;22.44;56.94
43824;BME280;29470;53.550;9.926;2022-07-18T20:27:23;101623.81;;;22.36;57.53
43824;BME280;29470;53.550;9.926;2022-07-18T20:32:25;101614.63;;;22.25;58.28
43824;BME280;29470;53.550;9.926;2022-07-18T20:37:28;101619.69;;;22.18;57.93
43824;BME280;29470;53.550;9.926;2022-07-18T20:42:33;101615.25;;;22.17;57.72
43824;BME280;29470;53.550;9.926;2022-07-18T20:47:36;101612.25;;;22.06;58.58
43824;BME280;29470;53.550;9.926;2022-07-18T20:52:39;101615.38;;;21.96;59.32
43824;BME280;29470;53.550;9.926;2022-07-18T20:57:43;101616.03;;;21.90;59.76
43824;BME280;29470;53.550;9.926;2022-07-18T21:02:47;101611.66;;;22.15;58.75
43824;BME280;29470;53.550;9.926;2022-07-18T21:07:50;101615.66;;;22.04;59.29
43824;BME280;29470;53.550;9.926;2022-07-18T21:12:54;101611.47;;;21.85;60.48
43824;BME280;29470;53.550;9.926;2022-07-18T21:18:05;101616.16;;;21.69;60.37
43824;BME280;29470;53.550;9.926;2022-07-18T21:23:08;101611.53;;;21.63;60.75
43824;BME280;29470;53.550;9.926;2022-07-18T21:28:12;101615.78;;;21.60;61.16
43824;BME280;29470;53.550;9.926;2022-07-18T21:33:15;101612.00;;;21.53;61.52
43824;BME280;29470;53.550;9.926;2022-07-18T21:38:18;101600.00;;;21.37;62.54
43824;BME280;29470;53.550;9.926;2022-07-18T21:43:22;101599.66;;;21.28;63.48
43824;BME280;29470;53.550;9.926;2022-07-18T21:48:25;101602.00;;;21.20;64.66
43824;BME280;29470;53.550;9.926;2022-07-18T21:53:28;101607.84;;;21.13;64.74
43824;BME280;29470;53.550;9.926;2022-07-18T21:58:32;101607.34;;;21.00;65.86
43824;BME280;29470;53.550;9.926;2022-07-18T22:03:35;101595.03;;;20.99;66.55
43824;BME280;29470;53.550;9.926;2022-07-18T22:08:37;101598.00;;;20.86;66.87
43824;BME280;29470;53.550;9.926;2022-07-18T22:13:42;101593.16;;;20.75;66.90
43824;BME280;29470;53.550;9.926;2022-07-18T22:18:45;101587.72;;;20.71;68.09
43824;BME280;29470;53.550;9.926;2022-07-18T22:23:48;101587.28;;;20.60;68.36
43824;BME280;29470;53.550;9.926;2022-07-18T22:28:52;101581.81;;;20.55;68.58
43824;BME280;29470;53.550;9.926;2022-07-18T22:33:56;101582.53;;;20.51;68.82
43824;BME280;29470;53.550;9.926;2022-07-18T22:38:59;101578.66;;;20.43;69.39
43824;BME280;29470;53.550;9.926;2022-07-18T22:44:03;101582.00;;;20.39;69.53
43824;BME280;29470;53.550;9.926;2022-07-18T22:49:06;101581.56;;;20.28;69.97
43824;BME280;29470;53.550;9.926;2022-07-18T22:54:09;101578.63;;;20.20;70.37
43824;BME280;29470;53.550;9.926;2022-07-18T22:59:14;101575.03;;;20.18;70.55
43824;BME280;29470;53.550;9.926;2022-07-18T23:04:16;101580.00;;;20.12;70.57
43824;BME280;29470;53.550;9.926;2022-07-18T23:09:21;101576.84;;;19.99;71.19
43824;BME280;29470;53.550;9.926;2022-07-18T23:14:25;101568.84;;;19.96;71.53
43824;BME280;29470;53.550;9.926;2022-07-18T23:19:28;101571.38;;;19.95;71.79
43824;BME280;29470;53.550;9.926;2022-07-18T23:24:31;101570.94;;;19.85;71.94
43824;BME280;29470;53.550;9.926;2022-07-18T23:29:35;101573.50;;;19.84;72.39
43824;BME280;29470;53.550;9.926;2022-07-18T23:34:38;101567.91;;;19.76;72.42
43824;BME280;29470;53.550;9.926;2022-07-18T23:39:41;101572.81;;;19.68;72.58
43824;BME280;29470;53.550;9.926;2022-07-18T23:44:45;101575.22;;;19.64;72.71
43824;BME280;29470;53.550;9.926;2022-07-18T23:49:48;101580.03;;;19.54;73.41
43824;BME280;29470;53.550;9.926;2022-07-18T23:54:51;101578.25;;;19.53;73.33
43824;BME280;29470;53.550;9.926;2022-07-18T23:59:56;101579.91;;;19.51;73.44
